sensor_id;sensor_type;location;lat;lon;timestamp;temperature;humidity
63202;DHT22;49296;48.188;11.566;2023-02-27T00:02:20;0.93;67.99
63202;DHT22;49296;48.188;11.566;2023-02-27T00:04:47;1.00;67.58
63202;DHT22;49296;48.188;11.566;2023-02-27T00:07:15;1.00;67.75
63202;DHT22;49296;48.188;11.566;2023-02-27T00:09:42;0.79;67.96
63202;DHT22;49296;48.188;11.566;2023-02-27T00:12:09;0.55;68.60
63202;DHT22;49296;48.188;11.566;2023-02-27T00:14:37;0.61;68.89
63202;DHT22;49296;48.188;11.566;2023-02-27T00:17:04;0.68;68.85
63202;DHT22;49296;48.188;11.566;2023-02-27T00:19:31;0.66;68.73
63202;DHT22;49296;48.188;11.566;2023-02-27T00:21:58;0.54;68.88
63202;DHT22;49296;48.188;11.566;2023-02-27T00:24:25;0.65;68.52
63202;DHT22;49296;48.188;11.566;2023-02-27T00:26:52;0.65;68.90
63202;DHT22;49296;48.188;11.566;2023-02-27T00:29:18;0.62;69.08
63202;DHT22;49296;48.188;11.566;2023-02-27T00:31:47;0.34;69.66
63202;DHT22;49296;48.188;11.566;2023-02-27T00:34:14;0.00;70.77
63202;DHT22;49296;48.188;11.566;2023-02-27T00:36:41;0.27;70.24
63202;DHT22;49296;48.188;11.566;2023-02-27T00:39:08;0.17;70.04
63202;DHT22;49296;48.188;11.566;2023-02-27T00:41:35;0.40;69.95
63202;DHT22;49296;48.188;11.566;2023-02-27T00:44:01;0.60;69.22
63202;DHT22;49296;48.188;11.566;2023-02-27T00:46:28;0.61;69.00
63202;DHT22;49296;48.188;11.566;2023-02-27T00:48:56;0.61;69.38
63202;DHT22;49296;48.188;11.566;2023-02-27T00:51:23;0.68;68.95
63202;DHT22;49296;48.188;11.566;2023-02-27T00:53:51;0.62;69.10
63202;DHT22;49296;48.188;11.566;2023-02-27T00:56:18;0.55;69.04
63202;DHT22;49296;48.188;11.566;2023-02-27T00:58:45;0.69;69.00
63202;DHT22;49296;48.188;11.566;2023-02-27T01:01:11;0.33;70.29
63202;DHT22;49296;48.188;11.566;2023-02-27T01:03:39;0.45;70.15
63202;DHT22;49296;48.188;11.566;2023-02-27T01:06:08;0.55;69.80
63202;DHT22;49296;48.188;11.566;2023-02-27T01:08:34;0.51;69.59
63202;DHT22;49296;48.188;11.566;2023-02-27T01:11:01;0.60;69.41
63202;DHT22;49296;48.188;11.566;2023-02-27T01:13:28;0.31;69.81
63202;DHT22;49296;48.188;11.566;2023-02-27T01:15:55;0.16;71.03
63202;DHT22;49296;48.188;11.566;2023-02-27T01:18:22;0.34;70.15
63202;DHT22;49296;48.188;11.566;2023-02-27T01:20:51;0.18;70.42
63202;DHT22;49296;48.188;11.566;2023-02-27T01:23:19;0.14;70.61
63202;DHT22;49296;48.188;11.566;2023-02-27T01:25:46;0.28;70.62
63202;DHT22;49296;48.188;11.566;2023-02-27T01:28:14;0.37;70.46
63202;DHT22;49296;48.188;11.566;2023-02-27T01:30:41;0.54;69.98
63202;DHT22;49296;48.188;11.566;2023-02-27T01:33:08;0.60;69.64
63202;DHT22;49296;48.188;11.566;2023-02-27T01:35:35;0.27;70.52
63202;DHT22;49296;48.188;11.566;2023-02-27T01:38:02;0.17;70.68
63202;DHT22;49296;48.188;11.566;2023-02-27T01:40:34;0.34;70.27
63202;DHT22;49296;48.188;11.566;2023-02-27T01:43:01;0.07;71.18
63202;DHT22;49296;48.188;11.566;2023-02-27T01:45:31;0.21;70.96
63202;DHT22;49296;48.188;11.566;2023-02-27T01:48:04;0.43;70.54
63202;DHT22;49296;48.188;11.566;2023-02-27T01:50:32;0.47;70.09
63202;DHT22;49296;48.188;11.566;2023-02-27T01:53:01;0.41;69.70
63202;DHT22;49296;48.188;11.566;2023-02-27T01:55:32;0.31;69.98
63202;DHT22;49296;48.188;11.566;2023-02-27T01:58:03;0.26;70.90
63202;DHT22;49296;48.188;11.566;2023-02-27T02:00:30;0.18;70.15
63202;DHT22;49296;48.188;11.566;2023-02-27T02:03:06;0.24;70.54
63202;DHT22;49296;48.188;11.566;2023-02-27T02:05:35;0.37;70.26
63202;DHT22;49296;48.188;11.566;2023-02-27T02:08:03;0.44;69.76
63202;DHT22;49296;48.188;11.566;2023-02-27T02:10:31;0.40;70.15
63202;DHT22;49296;48.188;11.566;2023-02-27T02:12:59;0.47;70.43
63202;DHT22;49296;48.188;11.566;2023-02-27T02:15:30;0.41;70.23
63202;DHT22;49296;48.188;11.566;2023-02-27T02:18:06;0.06;70.93
63202;DHT22;49296;48.188;11.566;2023-02-27T02:21:05;0.17;70.76
63202;DHT22;49296;48.188;11.566;2023-02-27T02:24:30;0.23;70.45
63202;DHT22;49296;48.188;11.566;2023-02-27T02:27:12;0.18;70.29
63202;DHT22;49296;48.188;11.566;2023-02-27T02:30:16;0.26;69.89
63202;DHT22;49296;48.188;11.566;2023-02-27T02:33:24;0.37;69.89
63202;DHT22;49296;48.188;11.566;2023-02-27T02:39:19;-0.02;70.58
63202;DHT22;49296;48.188;11.566;2023-02-27T02:41:56;0.13;70.69
63202;DHT22;49296;48.188;11.566;2023-02-27T02:44:40;0.18;70.12
63202;DHT22;49296;48.188;11.566;2023-02-27T02:47:18;0.36;69.56
63202;DHT22;49296;48.188;11.566;2023-02-27T02:49:55;0.50;69.36
63202;DHT22;49296;48.188;11.566;2023-02-27T02:52:26;0.30;69.66
63202;DHT22;49296;48.188;11.566;2023-02-27T02:55:00;0.02;70.15
63202;DHT22;49296;48.188;11.566;2023-02-27T02:57:32;0.02;70.70
63202;DHT22;49296;48.188;11.566;2023-02-27T03:00:03;0.16;70.21
63202;DHT22;49296;48.188;11.566;2023-02-27T03:02:34;0.23;70.11
63202;DHT22;49296;48.188;11.566;2023-02-27T03:05:06;0.21;70.31
63202;DHT22;49296;48.188;11.566;2023-02-27T03:07:35;0.34;69.60
63202;DHT22;49296;48.188;11.566;2023-02-27T03:10:08;0.41;69.04
63202;DHT22;49296;48.188;11.566;2023-02-27T03:12:38;0.40;69.58
63202;DHT22;49296;48.188;11.566;2023-02-27T03:15:12;0.16;70.25
63202;DHT22;49296;48.188;11.566;2023-02-27T03:17:46;0.21;69.69
63202;DHT22;49296;48.188;11.566;2023-02-27T03:20:19;0.24;69.81
63202;DHT22;49296;48.188;11.566;2023-02-27T03:22:51;0.28;69.68
63202;DHT22;49296;48.188;11.566;2023-02-27T03:25:23;0.38;69.11
63202;DHT22;49296;48.188;11.566;2023-02-27T03:27:53;0.45;68.71
63202;DHT22;49296;48.188;11.566;2023-02-27T03:30:25;0.27;69.41
63202;DHT22;49296;48.188;11.566;2023-02-27T03:32:56;0.38;69.10
63202;DHT22;49296;48.188;11.566;2023-02-27T03:35:40;0.45;68.76
63202;DHT22;49296;48.188;11.566;2023-02-27T03:38:16;0.31;69.02
63202;DHT22;49296;48.188;11.566;2023-02-27T03:40:51;0.51;68.70
63202;DHT22;49296;48.188;11.566;2023-02-27T03:43:24;0.45;68.64
63202;DHT22;49296;48.188;11.566;2023-02-27T03:45:55;0.45;68.73
63202;DHT22;49296;48.188;11.566;2023-02-27T03:48:24;0.38;68.88
63202;DHT22;49296;48.188;11.566;2023-02-27T03:50:51;0.41;69.12
63202;DHT22;49296;48.188;11.566;2023-02-27T03:53:23;0.03;70.36
63202;DHT22;49296;48.188;11.566;2023-02-27T03:55:55;0.18;69.97
63202;DHT22;49296;48.188;11.566;2023-02-27T03:58:23;0.38;69.10
63202;DHT22;49296;48.188;11.566;2023-02-27T04:00:50;0.24;69.46
63202;DHT22;49296;48.188;11.566;2023-02-27T04:03:17;0.31;69.28
63202;DHT22;49296;48.188;11.566;2023-02-27T04:05:45;0.50;69.09
63202;DHT22;49296;48.188;11.566;2023-02-27T04:08:31;0.28;69.76
63202;DHT22;49296;48.188;11.566;2023-02-27T04:11:15;0.23;69.63
63202;DHT22;49296;48.188;11.566;2023-02-27T04:13:58;0.47;69.07
63202;DHT22;49296;48.188;11.566;2023-02-27T04:16:57;0.58;68.67
63202;DHT22;49296;48.188;11.566;2023-02-27T04:19:45;0.60;68.47
63202;DHT22;49296;48.188;11.566;2023-02-27T04:22:27;0.54;68.62
63202;DHT22;49296;48.188;11.566;2023-02-27T04:25:04;0.44;69.18
63202;DHT22;49296;48.188;11.566;2023-02-27T04:27:38;0.51;68.89
63202;DHT22;49296;48.188;11.566;2023-02-27T04:30:15;0.43;69.15
63202;DHT22;49296;48.188;11.566;2023-02-27T04:32:50;0.17;69.69
63202;DHT22;49296;48.188;11.566;2023-02-27T04:35:23;0.20;69.83
63202;DHT22;49296;48.188;11.566;2023-02-27T04:37:54;0.27;70.11
63202;DHT22;49296;48.188;11.566;2023-02-27T04:40:26;0.43;69.42
63202;DHT22;49296;48.188;11.566;2023-02-27T04:42:57;0.18;70.04
63202;DHT22;49296;48.188;11.566;2023-02-27T04:45:27;0.37;69.35
63202;DHT22;49296;48.188;11.566;2023-02-27T04:47:59;0.31;69.28
63202;DHT22;49296;48.188;11.566;2023-02-27T04:50:32;0.43;69.11
63202;DHT22;49296;48.188;11.566;2023-02-27T04:53:05;0.37;68.90
63202;DHT22;49296;48.188;11.566;2023-02-27T04:55:38;0.33;69.24
63202;DHT22;49296;48.188;11.566;2023-02-27T04:58:11;0.30;69.30
63202;DHT22;49296;48.188;11.566;2023-02-27T05:00:41;0.38;69.16
63202;DHT22;49296;48.188;11.566;2023-02-27T05:03:11;0.45;68.90
63202;DHT22;49296;48.188;11.566;2023-02-27T05:05:40;0.48;68.48
63202;DHT22;49296;48.188;11.566;2023-02-27T05:08:13;0.21;69.05
63202;DHT22;49296;48.188;11.566;2023-02-27T05:10:45;0.26;69.55
63202;DHT22;49296;48.188;11.566;2023-02-27T05:13:19;0.26;69.20
63202;DHT22;49296;48.188;11.566;2023-02-27T05:15:51;0.24;69.24
63202;DHT22;49296;48.188;11.566;2023-02-27T05:18:20;0.30;69.10
63202;DHT22;49296;48.188;11.566;2023-02-27T05:20:55;0.40;68.73
63202;DHT22;49296;48.188;11.566;2023-02-27T05:23:31;0.27;69.05
63202;DHT22;49296;48.188;11.566;2023-02-27T05:26:04;0.40;68.88
63202;DHT22;49296;48.188;11.566;2023-02-27T05:28:40;0.17;68.86
63202;DHT22;49296;48.188;11.566;2023-02-27T05:31:16;0.16;69.52
63202;DHT22;49296;48.188;11.566;2023-02-27T05:33:48;0.24;68.92
63202;DHT22;49296;48.188;11.566;2023-02-27T05:36:22;0.23;68.67
63202;DHT22;49296;48.188;11.566;2023-02-27T05:38:52;0.28;68.45
63202;DHT22;49296;48.188;11.566;2023-02-27T05:41:24;0.27;68.30
63202;DHT22;49296;48.188;11.566;2023-02-27T05:43:57;0.20;68.56
63202;DHT22;49296;48.188;11.566;2023-02-27T05:46:29;0.18;68.78
63202;DHT22;49296;48.188;11.566;2023-02-27T05:48:59;0.30;68.82
63202;DHT22;49296;48.188;11.566;2023-02-27T05:51:31;0.16;69.16
63202;DHT22;49296;48.188;11.566;2023-02-27T05:54:02;0.30;69.03
63202;DHT22;49296;48.188;11.566;2023-02-27T05:56:31;0.28;68.88
63202;DHT22;49296;48.188;11.566;2023-02-27T05:59:03;0.17;69.48
63202;DHT22;49296;48.188;11.566;2023-02-27T06:01:32;0.27;68.77
63202;DHT22;49296;48.188;11.566;2023-02-27T06:03:58;0.33;68.96
63202;DHT22;49296;48.188;11.566;2023-02-27T06:06:25;0.16;69.76
63202;DHT22;49296;48.188;11.566;2023-02-27T06:08:52;0.21;69.80
63202;DHT22;49296;48.188;11.566;2023-02-27T06:11:19;0.31;69.01
63202;DHT22;49296;48.188;11.566;2023-02-27T06:13:46;0.24;69.23
63202;DHT22;49296;48.188;11.566;2023-02-27T06:16:14;0.34;71.56
63202;DHT22;49296;48.188;11.566;2023-02-27T06:18:41;0.38;70.59
63202;DHT22;49296;48.188;11.566;2023-02-27T06:21:08;0.21;70.20
63202;DHT22;49296;48.188;11.566;2023-02-27T06:23:35;0.23;70.09
63202;DHT22;49296;48.188;11.566;2023-02-27T06:26:01;0.33;69.35
63202;DHT22;49296;48.188;11.566;2023-02-27T06:28:28;0.43;69.33
63202;DHT22;49296;48.188;11.566;2023-02-27T06:30:55;0.34;69.30
63202;DHT22;49296;48.188;11.566;2023-02-27T06:33:24;0.23;69.90
63202;DHT22;49296;48.188;11.566;2023-02-27T06:35:51;0.38;69.56
63202;DHT22;49296;48.188;11.566;2023-02-27T06:38:18;0.41;69.75
63202;DHT22;49296;48.188;11.566;2023-02-27T06:40:45;0.48;69.54
63202;DHT22;49296;48.188;11.566;2023-02-27T06:43:11;0.58;69.03
63202;DHT22;49296;48.188;11.566;2023-02-27T06:45:39;0.48;69.21
63202;DHT22;49296;48.188;11.566;2023-02-27T06:48:05;0.55;68.96
63202;DHT22;49296;48.188;11.566;2023-02-27T06:50:33;0.40;69.44
63202;DHT22;49296;48.188;11.566;2023-02-27T06:53:00;0.40;69.29
63202;DHT22;49296;48.188;11.566;2023-02-27T06:55:27;0.36;69.59
63202;DHT22;49296;48.188;11.566;2023-02-27T06:57:54;0.50;69.35
63202;DHT22;49296;48.188;11.566;2023-02-27T07:00:21;0.52;69.82
63202;DHT22;49296;48.188;11.566;2023-02-27T07:02:48;0.48;69.40
63202;DHT22;49296;48.188;11.566;2023-02-27T07:05:14;0.40;69.78
63202;DHT22;49296;48.188;11.566;2023-02-27T07:07:43;0.40;69.67
63202;DHT22;49296;48.188;11.566;2023-02-27T07:10:12;0.37;69.92
63202;DHT22;49296;48.188;11.566;2023-02-27T07:12:39;0.57;69.13
63202;DHT22;49296;48.188;11.566;2023-02-27T07:15:09;0.60;68.99
63202;DHT22;49296;48.188;11.566;2023-02-27T07:17:36;0.34;69.12
63202;DHT22;49296;48.188;11.566;2023-02-27T07:20:04;0.44;69.51
63202;DHT22;49296;48.188;11.566;2023-02-27T07:22:31;0.52;69.50
63202;DHT22;49296;48.188;11.566;2023-02-27T07:24:59;0.66;69.03
63202;DHT22;49296;48.188;11.566;2023-02-27T07:27:25;0.37;69.13
63202;DHT22;49296;48.188;11.566;2023-02-27T07:29:52;0.40;69.92
63202;DHT22;49296;48.188;11.566;2023-02-27T07:32:19;0.51;69.14
63202;DHT22;49296;48.188;11.566;2023-02-27T07:34:45;0.45;68.99
63202;DHT22;49296;48.188;11.566;2023-02-27T07:37:12;0.44;69.44
63202;DHT22;49296;48.188;11.566;2023-02-27T07:39:39;0.69;68.68
63202;DHT22;49296;48.188;11.566;2023-02-27T07:42:07;0.72;68.37
63202;DHT22;49296;48.188;11.566;2023-02-27T07:44:34;0.69;68.37
63202;DHT22;49296;48.188;11.566;2023-02-27T07:47:00;0.55;69.24
63202;DHT22;49296;48.188;11.566;2023-02-27T07:49:27;0.50;69.20
63202;DHT22;49296;48.188;11.566;2023-02-27T07:51:54;0.45;69.53
63202;DHT22;49296;48.188;11.566;2023-02-27T07:54:20;0.78;68.89
63202;DHT22;49296;48.188;11.566;2023-02-27T07:56:47;0.79;68.34
63202;DHT22;49296;48.188;11.566;2023-02-27T07:59:17;0.97;67.98
63202;DHT22;49296;48.188;11.566;2023-02-27T08:01:43;1.04;67.87
63202;DHT22;49296;48.188;11.566;2023-02-27T08:04:10;1.17;67.00
63202;DHT22;49296;48.188;11.566;2023-02-27T08:06:37;0.99;66.95
63202;DHT22;49296;48.188;11.566;2023-02-27T08:09:04;0.90;66.94
63202;DHT22;49296;48.188;11.566;2023-02-27T08:14:54;0.93;67.00
63202;DHT22;49296;48.188;11.566;2023-02-27T08:17:20;0.72;67.89
63202;DHT22;49296;48.188;11.566;2023-02-27T08:19:47;1.01;67.55
63202;DHT22;49296;48.188;11.566;2023-02-27T08:22:13;0.95;67.05
63202;DHT22;49296;48.188;11.566;2023-02-27T08:24:40;0.95;67.29
63202;DHT22;49296;48.188;11.566;2023-02-27T08:27:07;0.82;67.38
63202;DHT22;49296;48.188;11.566;2023-02-27T08:29:33;0.89;67.32
63202;DHT22;49296;48.188;11.566;2023-02-27T08:32:01;0.86;67.38
63202;DHT22;49296;48.188;11.566;2023-02-27T08:34:29;1.07;66.67
63202;DHT22;49296;48.188;11.566;2023-02-27T08:36:55;0.96;66.70
63202;DHT22;49296;48.188;11.566;2023-02-27T08:39:22;1.23;66.05
63202;DHT22;49296;48.188;11.566;2023-02-27T08:41:49;1.23;66.34
63202;DHT22;49296;48.188;11.566;2023-02-27T08:44:16;0.90;65.56
63202;DHT22;49296;48.188;11.566;2023-02-27T08:46:43;0.90;65.74
63202;DHT22;49296;48.188;11.566;2023-02-27T08:49:12;0.85;66.15
63202;DHT22;49296;48.188;11.566;2023-02-27T08:51:38;0.82;66.09
63202;DHT22;49296;48.188;11.566;2023-02-27T08:54:05;0.92;66.15
63202;DHT22;49296;48.188;11.566;2023-02-27T08:56:32;1.01;66.08
63202;DHT22;49296;48.188;11.566;2023-02-27T08:58:59;1.14;66.13
63202;DHT22;49296;48.188;11.566;2023-02-27T09:01:26;1.31;64.88
63202;DHT22;49296;48.188;11.566;2023-02-27T09:04:01;1.19;65.39
63202;DHT22;49296;48.188;11.566;2023-02-27T09:06:32;1.31;65.14
63202;DHT22;49296;48.188;11.566;2023-02-27T09:08:59;1.22;67.62
63202;DHT22;49296;48.188;11.566;2023-02-27T09:11:26;1.41;67.26
63202;DHT22;49296;48.188;11.566;2023-02-27T09:13:53;1.54;66.05
63202;DHT22;49296;48.188;11.566;2023-02-27T09:16:21;1.45;67.91
63202;DHT22;49296;48.188;11.566;2023-02-27T09:18:48;1.44;68.61
63202;DHT22;49296;48.188;11.566;2023-02-27T09:21:15;1.42;66.63
63202;DHT22;49296;48.188;11.566;2023-02-27T09:23:43;1.28;64.97
63202;DHT22;49296;48.188;11.566;2023-02-27T09:26:10;1.17;65.81
63202;DHT22;49296;48.188;11.566;2023-02-27T09:28:37;1.30;66.12
63202;DHT22;49296;48.188;11.566;2023-02-27T09:31:05;1.59;66.47
63202;DHT22;49296;48.188;11.566;2023-02-27T09:33:32;1.40;64.03
63202;DHT22;49296;48.188;11.566;2023-02-27T09:35:59;1.48;63.56
63202;DHT22;49296;48.188;11.566;2023-02-27T09:38:26;1.41;64.03
63202;DHT22;49296;48.188;11.566;2023-02-27T09:40:55;1.23;64.57
63202;DHT22;49296;48.188;11.566;2023-02-27T09:43:23;1.14;65.26
63202;DHT22;49296;48.188;11.566;2023-02-27T09:45:54;0.83;65.94
63202;DHT22;49296;48.188;11.566;2023-02-27T09:48:28;0.76;65.90
63202;DHT22;49296;48.188;11.566;2023-02-27T09:50:56;0.93;65.77
63202;DHT22;49296;48.188;11.566;2023-02-27T09:53:25;1.06;65.20
63202;DHT22;49296;48.188;11.566;2023-02-27T09:55:56;0.90;65.36
63202;DHT22;49296;48.188;11.566;2023-02-27T09:58:33;0.97;65.61
63202;DHT22;49296;48.188;11.566;2023-02-27T10:01:07;0.92;65.70
63202;DHT22;49296;48.188;11.566;2023-02-27T10:03:54;1.04;65.72
63202;DHT22;49296;48.188;11.566;2023-02-27T10:06:28;1.00;65.63
63202;DHT22;49296;48.188;11.566;2023-02-27T10:09:18;1.06;65.94
63202;DHT22;49296;48.188;11.566;2023-02-27T10:11:56;1.14;65.33
63202;DHT22;49296;48.188;11.566;2023-02-27T10:14:36;1.28;64.25
63202;DHT22;49296;48.188;11.566;2023-02-27T10:17:11;1.23;64.12
63202;DHT22;49296;48.188;11.566;2023-02-27T10:19:43;1.30;63.89
63202;DHT22;49296;48.188;11.566;2023-02-27T10:22:15;1.31;63.98
63202;DHT22;49296;48.188;11.566;2023-02-27T10:24:47;1.30;63.80
63202;DHT22;49296;48.188;11.566;2023-02-27T10:27:18;1.48;63.20
63202;DHT22;49296;48.188;11.566;2023-02-27T10:29:46;1.42;62.44
63202;DHT22;49296;48.188;11.566;2023-02-27T10:32:16;1.28;62.99
63202;DHT22;49296;48.188;11.566;2023-02-27T10:34:44;1.20;62.14
63202;DHT22;49296;48.188;11.566;2023-02-27T10:37:14;1.30;62.10
63202;DHT22;49296;48.188;11.566;2023-02-27T10:39:44;1.31;61.32
63202;DHT22;49296;48.188;11.566;2023-02-27T10:42:15;1.41;60.70
63202;DHT22;49296;48.188;11.566;2023-02-27T10:44:42;1.48;60.16
63202;DHT22;49296;48.188;11.566;2023-02-27T10:47:12;1.45;60.57
63202;DHT22;49296;48.188;11.566;2023-02-27T10:49:42;1.49;60.54
63202;DHT22;49296;48.188;11.566;2023-02-27T10:52:11;1.40;60.04
63202;DHT22;49296;48.188;11.566;2023-02-27T10:54:38;1.41;60.36
63202;DHT22;49296;48.188;11.566;2023-02-27T10:57:25;1.66;59.52
63202;DHT22;49296;48.188;11.566;2023-02-27T10:59:57;1.79;58.20
63202;DHT22;49296;48.188;11.566;2023-02-27T11:02:34;1.62;59.07
63202;DHT22;49296;48.188;11.566;2023-02-27T11:05:02;1.60;58.43
63202;DHT22;49296;48.188;11.566;2023-02-27T11:07:32;1.69;58.75
63202;DHT22;49296;48.188;11.566;2023-02-27T11:10:15;1.92;57.67
63202;DHT22;49296;48.188;11.566;2023-02-27T11:12:57;1.96;57.05
63202;DHT22;49296;48.188;11.566;2023-02-27T11:15:29;1.90;56.31
63202;DHT22;49296;48.188;11.566;2023-02-27T11:18:18;1.75;57.04
63202;DHT22;49296;48.188;11.566;2023-02-27T11:20:45;1.92;57.10
63202;DHT22;49296;48.188;11.566;2023-02-27T11:23:16;2.10;55.66
63202;DHT22;49296;48.188;11.566;2023-02-27T11:25:44;2.11;55.79
63202;DHT22;49296;48.188;11.566;2023-02-27T11:28:19;1.96;56.17
63202;DHT22;49296;48.188;11.566;2023-02-27T11:30:55;1.92;56.33
63202;DHT22;49296;48.188;11.566;2023-02-27T11:33:23;2.11;56.46
63202;DHT22;49296;48.188;11.566;2023-02-27T11:35:52;2.24;56.09
63202;DHT22;49296;48.188;11.566;2023-02-27T11:38:20;2.13;56.56
63202;DHT22;49296;48.188;11.566;2023-02-27T11:40:51;1.94;56.55
63202;DHT22;49296;48.188;11.566;2023-02-27T11:43:22;1.94;57.04
63202;DHT22;49296;48.188;11.566;2023-02-27T11:45:50;2.21;55.22
63202;DHT22;49296;48.188;11.566;2023-02-27T11:48:20;1.93;56.80
63202;DHT22;49296;48.188;11.566;2023-02-27T11:51:06;2.28;55.39
63202;DHT22;49296;48.188;11.566;2023-02-27T11:54:03;2.31;54.70
63202;DHT22;49296;48.188;11.566;2023-02-27T11:56:35;2.13;55.51
63202;DHT22;49296;48.188;11.566;2023-02-27T11:59:14;2.07;53.95
63202;DHT22;49296;48.188;11.566;2023-02-27T12:01:45;2.14;53.81
63202;DHT22;49296;48.188;11.566;2023-02-27T12:04:17;2.14;54.15
63202;DHT22;49296;48.188;11.566;2023-02-27T12:06:51;2.11;55.67
63202;DHT22;49296;48.188;11.566;2023-02-27T12:09:35;2.00;56.69
63202;DHT22;49296;48.188;11.566;2023-02-27T12:12:08;2.00;57.13
63202;DHT22;49296;48.188;11.566;2023-02-27T12:14:47;1.86;57.58
63202;DHT22;49296;48.188;11.566;2023-02-27T12:17:22;1.93;57.08
63202;DHT22;49296;48.188;11.566;2023-02-27T12:19:59;2.17;56.52
63202;DHT22;49296;48.188;11.566;2023-02-27T12:22:30;2.11;56.28
63202;DHT22;49296;48.188;11.566;2023-02-27T12:25:03;1.90;57.75
63202;DHT22;49296;48.188;11.566;2023-02-27T12:27:36;1.93;56.91
63202;DHT22;49296;48.188;11.566;2023-02-27T12:30:17;1.76;57.33
63202;DHT22;49296;48.188;11.566;2023-02-27T12:32:49;1.96;57.60
63202;DHT22;49296;48.188;11.566;2023-02-27T12:35:21;1.86;58.25
63202;DHT22;49296;48.188;11.566;2023-02-27T12:37:50;1.69;57.81
63202;DHT22;49296;48.188;11.566;2023-02-27T12:40:19;1.70;57.01
63202;DHT22;49296;48.188;11.566;2023-02-27T12:42:58;1.77;57.78
63202;DHT22;49296;48.188;11.566;2023-02-27T12:45:43;1.86;57.52
63202;DHT22;49296;48.188;11.566;2023-02-27T12:48:19;2.07;56.70
63202;DHT22;49296;48.188;11.566;2023-02-27T12:50:54;2.02;56.42
63202;DHT22;49296;48.188;11.566;2023-02-27T12:53:33;2.22;55.94
63202;DHT22;49296;48.188;11.566;2023-02-27T12:56:12;1.77;56.70
63202;DHT22;49296;48.188;11.566;2023-02-27T12:58:47;1.80;55.89
63202;DHT22;49296;48.188;11.566;2023-02-27T13:01:31;1.79;56.11
63202;DHT22;49296;48.188;11.566;2023-02-27T13:04:06;1.86;56.35
63202;DHT22;49296;48.188;11.566;2023-02-27T13:06:45;1.82;56.90
63202;DHT22;49296;48.188;11.566;2023-02-27T13:09:24;1.69;57.02
63202;DHT22;49296;48.188;11.566;2023-02-27T13:11:58;1.79;56.04
63202;DHT22;49296;48.188;11.566;2023-02-27T13:14:36;1.85;55.72
63202;DHT22;49296;48.188;11.566;2023-02-27T13:17:11;1.75;55.43
63202;DHT22;49296;48.188;11.566;2023-02-27T13:19:46;1.80;55.06
63202;DHT22;49296;48.188;11.566;2023-02-27T13:22:30;1.93;55.54
63202;DHT22;49296;48.188;11.566;2023-02-27T13:25:04;1.87;55.45
63202;DHT22;49296;48.188;11.566;2023-02-27T13:27:35;2.03;55.28
63202;DHT22;49296;48.188;11.566;2023-02-27T13:30:10;1.79;55.07
63202;DHT22;49296;48.188;11.566;2023-02-27T13:32:42;2.00;54.82
63202;DHT22;49296;48.188;11.566;2023-02-27T13:35:22;2.03;55.12
63202;DHT22;49296;48.188;11.566;2023-02-27T13:37:53;2.30;55.42
63202;DHT22;49296;48.188;11.566;2023-02-27T13:40:32;2.55;54.48
63202;DHT22;49296;48.188;11.566;2023-02-27T13:43:02;2.46;53.99
63202;DHT22;49296;48.188;11.566;2023-02-27T13:48:45;2.49;55.38
63202;DHT22;49296;48.188;11.566;2023-02-27T13:54:24;2.39;54.57
63202;DHT22;49296;48.188;11.566;2023-02-27T13:57:07;2.42;54.54
63202;DHT22;49296;48.188;11.566;2023-02-27T13:59:40;2.46;55.08
63202;DHT22;49296;48.188;11.566;2023-02-27T14:02:28;2.22;56.27
63202;DHT22;49296;48.188;11.566;2023-02-27T14:04:58;2.32;56.18
63202;DHT22;49296;48.188;11.566;2023-02-27T14:07:28;2.07;55.92
63202;DHT22;49296;48.188;11.566;2023-02-27T14:10:00;2.15;55.92
63202;DHT22;49296;48.188;11.566;2023-02-27T14:12:29;2.45;55.40
63202;DHT22;49296;48.188;11.566;2023-02-27T14:14:58;2.48;55.60
63202;DHT22;49296;48.188;11.566;2023-02-27T14:17:49;2.73;55.49
63202;DHT22;49296;48.188;11.566;2023-02-27T14:20:48;2.42;55.84
63202;DHT22;49296;48.188;11.566;2023-02-27T14:23:19;2.38;55.73
63202;DHT22;49296;48.188;11.566;2023-02-27T14:25:51;2.56;55.34
63202;DHT22;49296;48.188;11.566;2023-02-27T14:28:22;2.20;55.83
63202;DHT22;49296;48.188;11.566;2023-02-27T14:30:53;2.20;55.97
63202;DHT22;49296;48.188;11.566;2023-02-27T14:33:23;2.37;56.31
63202;DHT22;49296;48.188;11.566;2023-02-27T14:35:59;2.14;56.87
63202;DHT22;49296;48.188;11.566;2023-02-27T14:38:27;2.22;55.19
63202;DHT22;49296;48.188;11.566;2023-02-27T14:41:15;2.13;55.96
63202;DHT22;49296;48.188;11.566;2023-02-27T14:43:44;1.97;55.96
63202;DHT22;49296;48.188;11.566;2023-02-27T14:46:23;1.99;55.85
63202;DHT22;49296;48.188;11.566;2023-02-27T14:48:54;2.17;55.87
63202;DHT22;49296;48.188;11.566;2023-02-27T14:51:23;1.90;56.06
63202;DHT22;49296;48.188;11.566;2023-02-27T14:54:03;1.76;55.73
63202;DHT22;49296;48.188;11.566;2023-02-27T14:56:32;2.18;55.21
63202;DHT22;49296;48.188;11.566;2023-02-27T14:59:00;2.07;55.33
63202;DHT22;49296;48.188;11.566;2023-02-27T15:01:27;2.03;55.96
63202;DHT22;49296;48.188;11.566;2023-02-27T15:03:59;2.04;56.34
63202;DHT22;49296;48.188;11.566;2023-02-27T15:06:34;2.03;56.44
63202;DHT22;49296;48.188;11.566;2023-02-27T15:09:01;2.03;57.02
63202;DHT22;49296;48.188;11.566;2023-02-27T15:11:28;1.96;56.62
63202;DHT22;49296;48.188;11.566;2023-02-27T15:13:57;1.97;56.82
63202;DHT22;49296;48.188;11.566;2023-02-27T15:16:30;2.04;57.16
63202;DHT22;49296;48.188;11.566;2023-02-27T15:19:01;1.93;57.26
63202;DHT22;49296;48.188;11.566;2023-02-27T15:21:32;1.79;57.47
63202;DHT22;49296;48.188;11.566;2023-02-27T15:24:01;1.82;56.96
63202;DHT22;49296;48.188;11.566;2023-02-27T15:26:30;2.03;56.86
63202;DHT22;49296;48.188;11.566;2023-02-27T15:29:00;1.96;57.14
63202;DHT22;49296;48.188;11.566;2023-02-27T15:31:28;1.94;57.58
63202;DHT22;49296;48.188;11.566;2023-02-27T15:33:59;1.96;57.31
63202;DHT22;49296;48.188;11.566;2023-02-27T15:36:28;1.92;57.73
63202;DHT22;49296;48.188;11.566;2023-02-27T15:39:06;1.79;57.24
63202;DHT22;49296;48.188;11.566;2023-02-27T15:41:33;1.82;57.69
63202;DHT22;49296;48.188;11.566;2023-02-27T15:44:01;1.97;57.76
63202;DHT22;49296;48.188;11.566;2023-02-27T15:46:29;2.17;57.43
63202;DHT22;49296;48.188;11.566;2023-02-27T15:48:56;2.21;57.01
63202;DHT22;49296;48.188;11.566;2023-02-27T15:51:24;2.17;57.22
63202;DHT22;49296;48.188;11.566;2023-02-27T15:53:53;2.04;57.74
63202;DHT22;49296;48.188;11.566;2023-02-27T15:56:25;1.86;57.99
63202;DHT22;49296;48.188;11.566;2023-02-27T15:58:54;1.63;58.19
63202;DHT22;49296;48.188;11.566;2023-02-27T16:01:23;1.73;58.09
63202;DHT22;49296;48.188;11.566;2023-02-27T16:03:52;1.97;57.07
63202;DHT22;49296;48.188;11.566;2023-02-27T16:06:21;2.00;56.70
63202;DHT22;49296;48.188;11.566;2023-02-27T16:08:51;1.77;57.44
63202;DHT22;49296;48.188;11.566;2023-02-27T16:11:19;1.65;57.84